Waynesfield, Ohio
Current Conditions -  °F | °C
As of 9:53 PM on Monday 22 Dec 2014 (Local Time) from KAOH Reporting Station
Overcast Overcast  
Wind Chill: 36°   Ceiling: 10000
Heat Index: 42°   Visibility: 8mi
Dew Point: 35°   Wind: 10mph
Humidity: 76%   Direction: 100°E
Pressure: 29.77"   Gusts: NA
Location:  40.6°N, 83.98°W
Report Text: KAOH 230253Z AUTO 10009KT 8SM FEW046 OVC100 06/02 A2977 RMK AO2 SLP087 60000 T00560017 58020
Loading
Personal Weather Stations






























Interactive Weather Map New forecast layout! Learn more

10-Day Weather Forecast

Advertisements
Track Severe Weather on mobile